Aviation Digital Data Service (ADDS)

Output produced by METARs form (0719 UTC 25 May 2015)
found at http://aviationweather.gov/adds/metars/
 
KOAJ 250532Z 2506/2606 16003KT P6SM SKC 
     FM251400 17008KT P6SM SCT040 AMD LTD TO CLD VIS AND WIND